sensor_id;sensor_type;location;lat;lon;timestamp;P1;durP1;ratioP1;P2;durP2;ratioP2
42098;SDS011;27758;55.900;8.516;2023-04-24T00:01:13;33.78;;;24.55;;
42098;SDS011;27758;55.900;8.516;2023-04-24T00:03:40;32.10;;;23.52;;
42098;SDS011;27758;55.900;8.516;2023-04-24T00:06:06;35.38;;;23.48;;
42098;SDS011;27758;55.900;8.516;2023-04-24T00:08:33;34.03;;;24.63;;
42098;SDS011;27758;55.900;8.516;2023-04-24T00:11:00;36.20;;;24.92;;
42098;SDS011;27758;55.900;8.516;2023-04-24T00:13:25;34.53;;;23.63;;
42098;SDS011;27758;55.900;8.516;2023-04-24T00:15:53;34.13;;;24.60;;
42098;SDS011;27758;55.900;8.516;2023-04-24T00:18:19;39.30;;;26.48;;
42098;SDS011;27758;55.900;8.516;2023-04-24T00:20:45;35.95;;;25.50;;
42098;SDS011;27758;55.900;8.516;2023-04-24T00:23:11;34.22;;;26.15;;
42098;SDS011;27758;55.900;8.516;2023-04-24T00:25:37;38.88;;;26.85;;
42098;SDS011;27758;55.900;8.516;2023-04-24T00:28:03;33.17;;;26.00;;
42098;SDS011;27758;55.900;8.516;2023-04-24T00:30:29;39.97;;;28.80;;
42098;SDS011;27758;55.900;8.516;2023-04-24T00:32:54;40.72;;;28.58;;
42098;SDS011;27758;55.900;8.516;2023-04-24T00:35:20;40.55;;;29.10;;
42098;SDS011;27758;55.900;8.516;2023-04-24T00:37:46;43.28;;;29.55;;
42098;SDS011;27758;55.900;8.516;2023-04-24T00:40:12;40.95;;;28.33;;
42098;SDS011;27758;55.900;8.516;2023-04-24T00:42:38;38.58;;;27.90;;
42098;SDS011;27758;55.900;8.516;2023-04-24T00:45:05;37.40;;;27.90;;
42098;SDS011;27758;55.900;8.516;2023-04-24T00:47:32;38.25;;;26.50;;
42098;SDS011;27758;55.900;8.516;2023-04-24T00:50:00;38.03;;;26.00;;
42098;SDS011;27758;55.900;8.516;2023-04-24T00:52:30;37.75;;;27.35;;
42098;SDS011;27758;55.900;8.516;2023-04-24T00:54:57;41.35;;;28.63;;
42098;SDS011;27758;55.900;8.516;2023-04-24T00:57:23;39.25;;;28.40;;
42098;SDS011;27758;55.900;8.516;2023-04-24T00:59:50;38.17;;;28.23;;
42098;SDS011;27758;55.900;8.516;2023-04-24T01:02:17;40.25;;;29.83;;
42098;SDS011;27758;55.900;8.516;2023-04-24T01:04:43;45.53;;;30.83;;
42098;SDS011;27758;55.900;8.516;2023-04-24T01:07:09;42.55;;;30.38;;
42098;SDS011;27758;55.900;8.516;2023-04-24T01:09:39;40.38;;;29.45;;
42098;SDS011;27758;55.900;8.516;2023-04-24T01:12:08;43.05;;;29.77;;
42098;SDS011;27758;55.900;8.516;2023-04-24T01:14:34;44.50;;;31.60;;
42098;SDS011;27758;55.900;8.516;2023-04-24T01:17:00;45.60;;;31.35;;
42098;SDS011;27758;55.900;8.516;2023-04-24T01:19:26;46.17;;;32.03;;
42098;SDS011;27758;55.900;8.516;2023-04-24T01:21:53;46.78;;;31.63;;
42098;SDS011;27758;55.900;8.516;2023-04-24T01:24:22;46.80;;;33.20;;
42098;SDS011;27758;55.900;8.516;2023-04-24T01:26:48;47.95;;;34.05;;
42098;SDS011;27758;55.900;8.516;2023-04-24T01:29:13;46.97;;;33.75;;
42098;SDS011;27758;55.900;8.516;2023-04-24T01:31:39;49.55;;;34.03;;
42098;SDS011;27758;55.900;8.516;2023-04-24T01:34:05;48.55;;;34.80;;
42098;SDS011;27758;55.900;8.516;2023-04-24T01:36:32;45.60;;;31.60;;
42098;SDS011;27758;55.900;8.516;2023-04-24T01:39:00;48.83;;;33.38;;
42098;SDS011;27758;55.900;8.516;2023-04-24T01:41:26;46.63;;;33.47;;
42098;SDS011;27758;55.900;8.516;2023-04-24T01:43:51;47.30;;;32.70;;
42098;SDS011;27758;55.900;8.516;2023-04-24T01:46:18;45.10;;;33.83;;
42098;SDS011;27758;55.900;8.516;2023-04-24T01:48:44;52.65;;;34.20;;
42098;SDS011;27758;55.900;8.516;2023-04-24T01:51:10;54.10;;;34.38;;
42098;SDS011;27758;55.900;8.516;2023-04-24T01:53:36;49.05;;;33.65;;
42098;SDS011;27758;55.900;8.516;2023-04-24T01:56:02;53.95;;;36.38;;
42098;SDS011;27758;55.900;8.516;2023-04-24T01:58:28;49.88;;;33.47;;
42098;SDS011;27758;55.900;8.516;2023-04-24T02:00:55;53.72;;;36.05;;
42098;SDS011;27758;55.900;8.516;2023-04-24T02:03:23;53.50;;;35.60;;
42098;SDS011;27758;55.900;8.516;2023-04-24T02:05:51;51.17;;;34.67;;
42098;SDS011;27758;55.900;8.516;2023-04-24T02:08:16;57.85;;;36.88;;
42098;SDS011;27758;55.900;8.516;2023-04-24T02:10:42;60.92;;;39.35;;
42098;SDS011;27758;55.900;8.516;2023-04-24T02:13:08;57.72;;;38.70;;
42098;SDS011;27758;55.900;8.516;2023-04-24T02:15:34;60.92;;;38.95;;
42098;SDS011;27758;55.900;8.516;2023-04-24T02:18:01;61.70;;;39.47;;
42098;SDS011;27758;55.900;8.516;2023-04-24T02:20:26;60.97;;;39.78;;
42098;SDS011;27758;55.900;8.516;2023-04-24T02:22:52;61.78;;;40.20;;
42098;SDS011;27758;55.900;8.516;2023-04-24T02:25:18;58.50;;;38.70;;
42098;SDS011;27758;55.900;8.516;2023-04-24T02:27:43;63.80;;;40.13;;
42098;SDS011;27758;55.900;8.516;2023-04-24T02:30:09;68.20;;;42.25;;
42098;SDS011;27758;55.900;8.516;2023-04-24T02:32:35;62.58;;;40.67;;
42098;SDS011;27758;55.900;8.516;2023-04-24T02:35:01;67.07;;;41.35;;
42098;SDS011;27758;55.900;8.516;2023-04-24T02:37:27;69.40;;;44.13;;
42098;SDS011;27758;55.900;8.516;2023-04-24T02:39:52;63.80;;;40.60;;
42098;SDS011;27758;55.900;8.516;2023-04-24T02:42:18;69.70;;;41.90;;
42098;SDS011;27758;55.900;8.516;2023-04-24T02:44:44;65.78;;;40.72;;
42098;SDS011;27758;55.900;8.516;2023-04-24T02:47:09;70.70;;;41.83;;
42098;SDS011;27758;55.900;8.516;2023-04-24T02:49:35;68.38;;;40.95;;
42098;SDS011;27758;55.900;8.516;2023-04-24T02:52:01;68.13;;;43.08;;
42098;SDS011;27758;55.900;8.516;2023-04-24T02:54:26;65.82;;;41.95;;
42098;SDS011;27758;55.900;8.516;2023-04-24T02:56:52;66.20;;;41.22;;
42098;SDS011;27758;55.900;8.516;2023-04-24T02:59:18;66.93;;;42.22;;
42098;SDS011;27758;55.900;8.516;2023-04-24T03:01:43;68.63;;;43.72;;
42098;SDS011;27758;55.900;8.516;2023-04-24T03:04:09;71.38;;;44.25;;
42098;SDS011;27758;55.900;8.516;2023-04-24T03:06:35;68.38;;;42.13;;
42098;SDS011;27758;55.900;8.516;2023-04-24T03:09:01;70.55;;;44.28;;
42098;SDS011;27758;55.900;8.516;2023-04-24T03:11:27;68.57;;;43.58;;
42098;SDS011;27758;55.900;8.516;2023-04-24T03:13:52;73.28;;;43.67;;
42098;SDS011;27758;55.900;8.516;2023-04-24T03:16:18;64.78;;;40.17;;
42098;SDS011;27758;55.900;8.516;2023-04-24T03:18:44;64.78;;;42.38;;
42098;SDS011;27758;55.900;8.516;2023-04-24T03:21:09;66.22;;;43.05;;
42098;SDS011;27758;55.900;8.516;2023-04-24T03:23:36;65.80;;;41.58;;
42098;SDS011;27758;55.900;8.516;2023-04-24T03:26:02;69.82;;;41.85;;
42098;SDS011;27758;55.900;8.516;2023-04-24T03:28:27;64.60;;;40.67;;
42098;SDS011;27758;55.900;8.516;2023-04-24T03:30:53;70.85;;;41.65;;
42098;SDS011;27758;55.900;8.516;2023-04-24T03:33:19;70.50;;;42.70;;
42098;SDS011;27758;55.900;8.516;2023-04-24T03:35:45;61.47;;;40.75;;
42098;SDS011;27758;55.900;8.516;2023-04-24T03:38:10;62.20;;;40.17;;
42098;SDS011;27758;55.900;8.516;2023-04-24T03:40:36;66.40;;;41.72;;
42098;SDS011;27758;55.900;8.516;2023-04-24T03:43:02;59.90;;;39.35;;
42098;SDS011;27758;55.900;8.516;2023-04-24T03:45:27;69.60;;;42.00;;
42098;SDS011;27758;55.900;8.516;2023-04-24T03:47:53;62.40;;;40.33;;
42098;SDS011;27758;55.900;8.516;2023-04-24T03:50:19;66.10;;;40.63;;
42098;SDS011;27758;55.900;8.516;2023-04-24T03:52:45;62.63;;;39.88;;
42098;SDS011;27758;55.900;8.516;2023-04-24T03:55:11;66.45;;;40.47;;
42098;SDS011;27758;55.900;8.516;2023-04-24T03:57:39;63.03;;;38.83;;
42098;SDS011;27758;55.900;8.516;2023-04-24T04:00:06;59.58;;;40.22;;
42098;SDS011;27758;55.900;8.516;2023-04-24T04:02:32;61.30;;;40.53;;
42098;SDS011;27758;55.900;8.516;2023-04-24T04:04:57;62.33;;;41.15;;
42098;SDS011;27758;55.900;8.516;2023-04-24T04:07:23;64.43;;;40.70;;
42098;SDS011;27758;55.900;8.516;2023-04-24T04:09:49;63.75;;;41.92;;
42098;SDS011;27758;55.900;8.516;2023-04-24T04:12:14;61.00;;;40.58;;
42098;SDS011;27758;55.900;8.516;2023-04-24T04:14:40;59.92;;;40.40;;
42098;SDS011;27758;55.900;8.516;2023-04-24T04:17:06;64.03;;;41.42;;
42098;SDS011;27758;55.900;8.516;2023-04-24T04:19:32;66.70;;;41.88;;
42098;SDS011;27758;55.900;8.516;2023-04-24T04:21:57;65.55;;;42.58;;
42098;SDS011;27758;55.900;8.516;2023-04-24T04:24:24;66.25;;;41.63;;
42098;SDS011;27758;55.900;8.516;2023-04-24T04:26:54;58.30;;;38.78;;
42098;SDS011;27758;55.900;8.516;2023-04-24T04:29:23;60.72;;;39.50;;
42098;SDS011;27758;55.900;8.516;2023-04-24T04:31:48;62.03;;;39.50;;
42098;SDS011;27758;55.900;8.516;2023-04-24T04:34:14;58.60;;;39.15;;
42098;SDS011;27758;55.900;8.516;2023-04-24T04:36:40;60.38;;;39.53;;
42098;SDS011;27758;55.900;8.516;2023-04-24T04:39:06;56.22;;;37.35;;
42098;SDS011;27758;55.900;8.516;2023-04-24T04:41:32;56.65;;;36.88;;
42098;SDS011;27758;55.900;8.516;2023-04-24T04:44:00;60.50;;;37.08;;
42098;SDS011;27758;55.900;8.516;2023-04-24T04:46:26;56.45;;;37.47;;
42098;SDS011;27758;55.900;8.516;2023-04-24T04:48:52;54.08;;;35.80;;
42098;SDS011;27758;55.900;8.516;2023-04-24T04:51:19;52.53;;;36.42;;
42098;SDS011;27758;55.900;8.516;2023-04-24T04:53:45;52.63;;;35.40;;
42098;SDS011;27758;55.900;8.516;2023-04-24T04:56:11;43.78;;;32.05;;
42098;SDS011;27758;55.900;8.516;2023-04-24T04:58:37;51.65;;;35.05;;
42098;SDS011;27758;55.900;8.516;2023-04-24T05:01:02;53.75;;;35.25;;
42098;SDS011;27758;55.900;8.516;2023-04-24T05:03:28;47.47;;;33.97;;
42098;SDS011;27758;55.900;8.516;2023-04-24T05:05:54;47.90;;;33.30;;
42098;SDS011;27758;55.900;8.516;2023-04-24T05:08:19;43.75;;;30.98;;
42098;SDS011;27758;55.900;8.516;2023-04-24T05:10:45;44.03;;;30.50;;
42098;SDS011;27758;55.900;8.516;2023-04-24T05:13:11;42.60;;;29.83;;
42098;SDS011;27758;55.900;8.516;2023-04-24T05:15:36;44.35;;;29.88;;
42098;SDS011;27758;55.900;8.516;2023-04-24T05:18:02;41.72;;;29.08;;
42098;SDS011;27758;55.900;8.516;2023-04-24T05:20:28;38.70;;;27.70;;
42098;SDS011;27758;55.900;8.516;2023-04-24T05:22:53;39.63;;;28.50;;
42098;SDS011;27758;55.900;8.516;2023-04-24T05:25:19;37.50;;;28.48;;
42098;SDS011;27758;55.900;8.516;2023-04-24T05:27:45;37.97;;;27.20;;
42098;SDS011;27758;55.900;8.516;2023-04-24T05:30:11;38.97;;;27.70;;
42098;SDS011;27758;55.900;8.516;2023-04-24T05:32:37;36.30;;;27.02;;
42098;SDS011;27758;55.900;8.516;2023-04-24T05:35:03;41.35;;;26.52;;
42098;SDS011;27758;55.900;8.516;2023-04-24T05:37:29;32.85;;;23.38;;
42098;SDS011;27758;55.900;8.516;2023-04-24T05:39:54;33.30;;;25.38;;
42098;SDS011;27758;55.900;8.516;2023-04-24T05:42:20;35.90;;;25.30;;
42098;SDS011;27758;55.900;8.516;2023-04-24T05:44:46;32.60;;;24.00;;
42098;SDS011;27758;55.900;8.516;2023-04-24T05:47:11;31.73;;;24.45;;
42098;SDS011;27758;55.900;8.516;2023-04-24T05:49:37;31.30;;;23.40;;
42098;SDS011;27758;55.900;8.516;2023-04-24T05:52:03;31.70;;;23.00;;
42098;SDS011;27758;55.900;8.516;2023-04-24T05:54:30;30.65;;;22.75;;
42098;SDS011;27758;55.900;8.516;2023-04-24T05:56:56;34.20;;;25.00;;
42098;SDS011;27758;55.900;8.516;2023-04-24T05:59:21;32.40;;;22.70;;
42098;SDS011;27758;55.900;8.516;2023-04-24T06:01:47;32.15;;;24.13;;
42098;SDS011;27758;55.900;8.516;2023-04-24T06:04:13;40.28;;;26.58;;
42098;SDS011;27758;55.900;8.516;2023-04-24T06:06:39;34.75;;;26.10;;
42098;SDS011;27758;55.900;8.516;2023-04-24T06:09:05;41.70;;;26.55;;
42098;SDS011;27758;55.900;8.516;2023-04-24T06:11:31;37.25;;;27.33;;
42098;SDS011;27758;55.900;8.516;2023-04-24T06:13:57;38.30;;;29.00;;
42098;SDS011;27758;55.900;8.516;2023-04-24T06:16:23;39.58;;;29.50;;
42098;SDS011;27758;55.900;8.516;2023-04-24T06:18:48;42.83;;;29.77;;
42098;SDS011;27758;55.900;8.516;2023-04-24T06:21:15;40.10;;;28.23;;
42098;SDS011;27758;55.900;8.516;2023-04-24T06:23:41;39.72;;;28.27;;
42098;SDS011;27758;55.900;8.516;2023-04-24T06:26:07;43.53;;;30.42;;
42098;SDS011;27758;55.900;8.516;2023-04-24T06:28:33;39.72;;;29.02;;
42098;SDS011;27758;55.900;8.516;2023-04-24T06:30:58;44.22;;;29.00;;
42098;SDS011;27758;55.900;8.516;2023-04-24T06:33:24;40.97;;;29.20;;
42098;SDS011;27758;55.900;8.516;2023-04-24T06:35:49;39.13;;;27.15;;
42098;SDS011;27758;55.900;8.516;2023-04-24T06:38:15;39.00;;;27.77;;
42098;SDS011;27758;55.900;8.516;2023-04-24T06:40:41;39.58;;;27.15;;
42098;SDS011;27758;55.900;8.516;2023-04-24T06:43:07;40.58;;;28.75;;
42098;SDS011;27758;55.900;8.516;2023-04-24T06:45:32;45.75;;;30.75;;
42098;SDS011;27758;55.900;8.516;2023-04-24T06:47:58;43.05;;;29.60;;
42098;SDS011;27758;55.900;8.516;2023-04-24T06:50:24;40.05;;;28.70;;
42098;SDS011;27758;55.900;8.516;2023-04-24T06:52:50;39.22;;;28.85;;
42098;SDS011;27758;55.900;8.516;2023-04-24T06:55:17;38.95;;;28.25;;
42098;SDS011;27758;55.900;8.516;2023-04-24T06:57:43;35.55;;;27.83;;
42098;SDS011;27758;55.900;8.516;2023-04-24T07:00:09;38.33;;;27.52;;
42098;SDS011;27758;55.900;8.516;2023-04-24T07:02:36;37.78;;;27.85;;
42098;SDS011;27758;55.900;8.516;2023-04-24T07:05:02;36.10;;;27.50;;
42098;SDS011;27758;55.900;8.516;2023-04-24T07:07:29;39.03;;;27.20;;
42098;SDS011;27758;55.900;8.516;2023-04-24T07:09:54;30.85;;;23.27;;
42098;SDS011;27758;55.900;8.516;2023-04-24T07:12:21;32.38;;;24.10;;
42098;SDS011;27758;55.900;8.516;2023-04-24T07:14:47;30.45;;;23.58;;
42098;SDS011;27758;55.900;8.516;2023-04-24T07:17:13;29.90;;;21.67;;
42098;SDS011;27758;55.900;8.516;2023-04-24T07:19:39;30.33;;;22.88;;
42098;SDS011;27758;55.900;8.516;2023-04-24T07:22:05;25.60;;;18.65;;
42098;SDS011;27758;55.900;8.516;2023-04-24T07:24:31;22.95;;;17.77;;
42098;SDS011;27758;55.900;8.516;2023-04-24T07:26:59;20.63;;;15.07;;
42098;SDS011;27758;55.900;8.516;2023-04-24T07:29:28;19.75;;;15.18;;
42098;SDS011;27758;55.900;8.516;2023-04-24T07:31:54;17.73;;;11.43;;
42098;SDS011;27758;55.900;8.516;2023-04-24T07:34:19;16.30;;;10.55;;
42098;SDS011;27758;55.900;8.516;2023-04-24T07:36:45;16.83;;;9.52;;
42098;SDS011;27758;55.900;8.516;2023-04-24T07:39:11;12.68;;;7.70;;
42098;SDS011;27758;55.900;8.516;2023-04-24T07:41:37;10.68;;;6.28;;
42098;SDS011;27758;55.900;8.516;2023-04-24T07:44:03;8.02;;;5.68;;
42098;SDS011;27758;55.900;8.516;2023-04-24T07:46:29;8.63;;;4.70;;
42098;SDS011;27758;55.900;8.516;2023-04-24T07:48:55;9.40;;;4.53;;
42098;SDS011;27758;55.900;8.516;2023-04-24T07:51:21;5.88;;;3.92;;
42098;SDS011;27758;55.900;8.516;2023-04-24T07:53:47;6.22;;;3.97;;
42098;SDS011;27758;55.900;8.516;2023-04-24T07:56:12;8.38;;;5.60;;
42098;SDS011;27758;55.900;8.516;2023-04-24T07:58:38;9.65;;;5.63;;
42098;SDS011;27758;55.900;8.516;2023-04-24T08:01:04;6.40;;;4.90;;
42098;SDS011;27758;55.900;8.516;2023-04-24T08:03:30;7.03;;;4.60;;
42098;SDS011;27758;55.900;8.516;2023-04-24T08:05:55;5.72;;;4.38;;
42098;SDS011;27758;55.900;8.516;2023-04-24T08:08:21;6.53;;;3.92;;
42098;SDS011;27758;55.900;8.516;2023-04-24T08:10:47;7.90;;;4.32;;
42098;SDS011;27758;55.900;8.516;2023-04-24T08:13:14;4.97;;;3.03;;
42098;SDS011;27758;55.900;8.516;2023-04-24T08:15:39;7.57;;;2.97;;
42098;SDS011;27758;55.900;8.516;2023-04-24T08:18:05;5.28;;;3.25;;
42098;SDS011;27758;55.900;8.516;2023-04-24T08:20:31;5.40;;;2.78;;
42098;SDS011;27758;55.900;8.516;2023-04-24T08:22:57;6.22;;;3.33;;
42098;SDS011;27758;55.900;8.516;2023-04-24T08:25:23;6.40;;;3.38;;
42098;SDS011;27758;55.900;8.516;2023-04-24T08:27:49;4.80;;;3.00;;
42098;SDS011;27758;55.900;8.516;2023-04-24T08:30:16;6.97;;;2.97;;
42098;SDS011;27758;55.900;8.516;2023-04-24T08:32:41;5.57;;;2.80;;
42098;SDS011;27758;55.900;8.516;2023-04-24T08:35:07;5.50;;;2.88;;
42098;SDS011;27758;55.900;8.516;2023-04-24T08:37:34;5.57;;;2.70;;
42098;SDS011;27758;55.900;8.516;2023-04-24T08:40:01;6.50;;;3.20;;
42098;SDS011;27758;55.900;8.516;2023-04-24T08:42:56;6.32;;;3.05;;
42098;SDS011;27758;55.900;8.516;2023-04-24T08:45:22;7.32;;;3.33;;
42098;SDS011;27758;55.900;8.516;2023-04-24T08:47:48;8.40;;;3.35;;
42098;SDS011;27758;55.900;8.516;2023-04-24T08:50:15;9.25;;;2.95;;
42098;SDS011;27758;55.900;8.516;2023-04-24T08:52:41;6.07;;;2.70;;
42098;SDS011;27758;55.900;8.516;2023-04-24T08:55:08;11.05;;;2.72;;
42098;SDS011;27758;55.900;8.516;2023-04-24T08:57:34;7.70;;;3.28;;
42098;SDS011;27758;55.900;8.516;2023-04-24T09:00:03;5.40;;;2.95;;
42098;SDS011;27758;55.900;8.516;2023-04-24T09:02:29;10.77;;;3.17;;
42098;SDS011;27758;55.900;8.516;2023-04-24T09:04:57;6.30;;;3.03;;
42098;SDS011;27758;55.900;8.516;2023-04-24T09:07:24;6.03;;;2.88;;
42098;SDS011;27758;55.900;8.516;2023-04-24T09:09:52;5.70;;;3.00;;
42098;SDS011;27758;55.900;8.516;2023-04-24T09:12:19;5.72;;;2.92;;
42098;SDS011;27758;55.900;8.516;2023-04-24T09:14:45;8.15;;;2.55;;
42098;SDS011;27758;55.900;8.516;2023-04-24T09:17:13;4.50;;;2.80;;
42098;SDS011;27758;55.900;8.516;2023-04-24T09:19:38;5.72;;;2.65;;
42098;SDS011;27758;55.900;8.516;2023-04-24T09:22:05;6.28;;;3.50;;
42098;SDS011;27758;55.900;8.516;2023-04-24T09:24:32;19.65;;;5.18;;
42098;SDS011;27758;55.900;8.516;2023-04-24T09:26:58;4.18;;;3.25;;
42098;SDS011;27758;55.900;8.516;2023-04-24T09:29:26;6.45;;;3.22;;
42098;SDS011;27758;55.900;8.516;2023-04-24T09:31:52;3.83;;;2.60;;
42098;SDS011;27758;55.900;8.516;2023-04-24T09:34:21;7.57;;;2.67;;
42098;SDS011;27758;55.900;8.516;2023-04-24T09:36:48;4.03;;;3.17;;
42098;SDS011;27758;55.900;8.516;2023-04-24T09:39:15;11.43;;;3.95;;
42098;SDS011;27758;55.900;8.516;2023-04-24T09:41:46;9.32;;;4.13;;
42098;SDS011;27758;55.900;8.516;2023-04-24T09:44:20;3.80;;;3.05;;
42098;SDS011;27758;55.900;8.516;2023-04-24T09:46:50;6.15;;;3.30;;
42098;SDS011;27758;55.900;8.516;2023-04-24T09:49:16;9.25;;;3.22;;
42098;SDS011;27758;55.900;8.516;2023-04-24T09:52:02;5.75;;;3.28;;
42098;SDS011;27758;55.900;8.516;2023-04-24T09:54:28;4.07;;;2.60;;
42098;SDS011;27758;55.900;8.516;2023-04-24T09:56:54;2.50;;;2.08;;
42098;SDS011;27758;55.900;8.516;2023-04-24T09:59:21;5.80;;;2.83;;
42098;SDS011;27758;55.900;8.516;2023-04-24T10:01:47;5.07;;;2.25;;
42098;SDS011;27758;55.900;8.516;2023-04-24T10:06:47;5.07;;;2.45;;
42098;SDS011;27758;55.900;8.516;2023-04-24T10:09:14;5.82;;;2.67;;
42098;SDS011;27758;55.900;8.516;2023-04-24T10:11:45;4.38;;;2.00;;
42098;SDS011;27758;55.900;8.516;2023-04-24T10:14:14;4.20;;;2.17;;
42098;SDS011;27758;55.900;8.516;2023-04-24T10:16:45;3.70;;;1.90;;
42098;SDS011;27758;55.900;8.516;2023-04-24T10:19:12;6.03;;;1.77;;
42098;SDS011;27758;55.900;8.516;2023-04-24T10:21:42;2.78;;;1.40;;
42098;SDS011;27758;55.900;8.516;2023-04-24T10:24:17;4.32;;;1.38;;
42098;SDS011;27758;55.900;8.516;2023-04-24T10:26:45;2.10;;;1.55;;
42098;SDS011;27758;55.900;8.516;2023-04-24T10:29:14;4.22;;;2.28;;
42098;SDS011;27758;55.900;8.516;2023-04-24T10:31:40;2.92;;;1.77;;
42098;SDS011;27758;55.900;8.516;2023-04-24T10:34:07;4.90;;;3.22;;
42098;SDS011;27758;55.900;8.516;2023-04-24T10:36:34;5.05;;;3.28;;
42098;SDS011;27758;55.900;8.516;2023-04-24T10:39:02;5.13;;;3.25;;
42098;SDS011;27758;55.900;8.516;2023-04-24T10:41:31;9.00;;;4.97;;
42098;SDS011;27758;55.900;8.516;2023-04-24T10:44:15;6.63;;;5.25;;
42098;SDS011;27758;55.900;8.516;2023-04-24T10:46:45;5.97;;;4.80;;
42098;SDS011;27758;55.900;8.516;2023-04-24T10:49:14;7.63;;;5.63;;
42098;SDS011;27758;55.900;8.516;2023-04-24T10:51:50;8.98;;;5.97;;
42098;SDS011;27758;55.900;8.516;2023-04-24T10:54:36;9.40;;;6.32;;
42098;SDS011;27758;55.900;8.516;2023-04-24T10:59:47;8.98;;;6.80;;
42098;SDS011;27758;55.900;8.516;2023-04-24T11:02:14;11.15;;;7.43;;
42098;SDS011;27758;55.900;8.516;2023-04-24T11:04:41;9.57;;;7.00;;
42098;SDS011;27758;55.900;8.516;2023-04-24T11:07:10;9.57;;;6.25;;
42098;SDS011;27758;55.900;8.516;2023-04-24T11:09:36;9.60;;;6.63;;
42098;SDS011;27758;55.900;8.516;2023-04-24T11:12:06;8.25;;;6.22;;
42098;SDS011;27758;55.900;8.516;2023-04-24T11:17:29;8.98;;;6.22;;
42098;SDS011;27758;55.900;8.516;2023-04-24T11:20:09;6.28;;;3.45;;
42098;SDS011;27758;55.900;8.516;2023-04-24T11:22:39;9.13;;;4.07;;
42098;SDS011;27758;55.900;8.516;2023-04-24T11:25:06;4.63;;;3.60;;
42098;SDS011;27758;55.900;8.516;2023-04-24T11:27:38;4.78;;;2.15;;
42098;SDS011;27758;55.900;8.516;2023-04-24T11:30:08;2.15;;;1.77;;
42098;SDS011;27758;55.900;8.516;2023-04-24T11:32:36;4.47;;;2.67;;
42098;SDS011;27758;55.900;8.516;2023-04-24T11:35:07;2.58;;;1.90;;
42098;SDS011;27758;55.900;8.516;2023-04-24T11:42:34;2.88;;;2.17;;
42098;SDS011;27758;55.900;8.516;2023-04-24T11:45:01;3.75;;;1.85;;
42098;SDS011;27758;55.900;8.516;2023-04-24T11:47:32;2.83;;;1.70;;
42098;SDS011;27758;55.900;8.516;2023-04-24T11:50:00;3.13;;;1.23;;
42098;SDS011;27758;55.900;8.516;2023-04-24T11:52:27;2.75;;;1.77;;
42098;SDS011;27758;55.900;8.516;2023-04-24T11:54:53;3.50;;;1.90;;
42098;SDS011;27758;55.900;8.516;2023-04-24T11:57:20;2.50;;;2.30;;
42098;SDS011;27758;55.900;8.516;2023-04-24T11:59:51;3.88;;;2.92;;
42098;SDS011;27758;55.900;8.516;2023-04-24T12:02:21;3.13;;;2.30;;
42098;SDS011;27758;55.900;8.516;2023-04-24T12:04:46;4.32;;;3.05;;
42098;SDS011;27758;55.900;8.516;2023-04-24T12:07:12;2.65;;;2.40;;
42098;SDS011;27758;55.900;8.516;2023-04-24T12:09:45;2.35;;;1.92;;
42098;SDS011;27758;55.900;8.516;2023-04-24T12:12:11;2.70;;;1.67;;
42098;SDS011;27758;55.900;8.516;2023-04-24T12:14:45;2.97;;;1.98;;
42098;SDS011;27758;55.900;8.516;2023-04-24T12:17:17;3.92;;;1.80;;
42098;SDS011;27758;55.900;8.516;2023-04-24T12:19:48;5.30;;;2.20;;
42098;SDS011;27758;55.900;8.516;2023-04-24T12:22:16;2.40;;;2.13;;
42098;SDS011;27758;55.900;8.516;2023-04-24T12:27:33;2.50;;;2.15;;
42098;SDS011;27758;55.900;8.516;2023-04-24T12:29:59;3.45;;;1.75;;
42098;SDS011;27758;55.900;8.516;2023-04-24T12:32:26;2.35;;;1.88;;
42098;SDS011;27758;55.900;8.516;2023-04-24T12:34:53;3.17;;;1.85;;
42098;SDS011;27758;55.900;8.516;2023-04-24T12:37:20;1.58;;;1.25;;
42098;SDS011;27758;55.900;8.516;2023-04-24T12:42:36;2.55;;;1.90;;
42098;SDS011;27758;55.900;8.516;2023-04-24T12:45:15;2.70;;;1.88;;
42098;SDS011;27758;55.900;8.516;2023-04-24T12:47:42;2.60;;;1.75;;
42098;SDS011;27758;55.900;8.516;2023-04-24T12:50:10;2.53;;;1.55;;
42098;SDS011;27758;55.900;8.516;2023-04-24T12:52:38;3.63;;;1.60;;
42098;SDS011;27758;55.900;8.516;2023-04-24T12:55:05;3.47;;;1.38;;
42098;SDS011;27758;55.900;8.516;2023-04-24T12:57:33;1.85;;;1.20;;
42098;SDS011;27758;55.900;8.516;2023-04-24T12:59:59;2.45;;;1.50;;
42098;SDS011;27758;55.900;8.516;2023-04-24T13:02:27;2.08;;;1.20;;
42098;SDS011;27758;55.900;8.516;2023-04-24T13:04:55;2.63;;;1.55;;
42098;SDS011;27758;55.900;8.516;2023-04-24T13:07:21;1.40;;;1.20;;
42098;SDS011;27758;55.900;8.516;2023-04-24T13:09:47;2.40;;;1.73;;
42098;SDS011;27758;55.900;8.516;2023-04-24T13:12:14;3.40;;;1.80;;
42098;SDS011;27758;55.900;8.516;2023-04-24T13:14:41;3.80;;;2.00;;
42098;SDS011;27758;55.900;8.516;2023-04-24T13:17:07;1.77;;;1.60;;
42098;SDS011;27758;55.900;8.516;2023-04-24T13:19:37;1.88;;;1.15;;
42098;SDS011;27758;55.900;8.516;2023-04-24T13:22:05;2.33;;;1.30;;
42098;SDS011;27758;55.900;8.516;2023-04-24T13:24:31;1.40;;;1.30;;
42098;SDS011;27758;55.900;8.516;2023-04-24T13:26:58;4.43;;;3.80;;
42098;SDS011;27758;55.900;8.516;2023-04-24T13:29:25;4.38;;;3.70;;
42098;SDS011;27758;55.900;8.516;2023-04-24T13:31:52;5.53;;;4.30;;
42098;SDS011;27758;55.900;8.516;2023-04-24T13:34:20;7.45;;;5.13;;
42098;SDS011;27758;55.900;8.516;2023-04-24T13:36:46;6.53;;;5.72;;
42098;SDS011;27758;55.900;8.516;2023-04-24T13:39:12;9.30;;;6.47;;
42098;SDS011;27758;55.900;8.516;2023-04-24T13:41:37;8.77;;;7.00;;
42098;SDS011;27758;55.900;8.516;2023-04-24T13:44:04;10.63;;;7.82;;
42098;SDS011;27758;55.900;8.516;2023-04-24T13:46:31;12.95;;;9.75;;
42098;SDS011;27758;55.900;8.516;2023-04-24T13:48:56;12.68;;;9.25;;
42098;SDS011;27758;55.900;8.516;2023-04-24T13:51:23;13.70;;;10.55;;
42098;SDS011;27758;55.900;8.516;2023-04-24T13:53:52;21.90;;;14.75;;
42098;SDS011;27758;55.900;8.516;2023-04-24T13:56:18;20.63;;;14.27;;
42098;SDS011;27758;55.900;8.516;2023-04-24T13:58:45;22.60;;;14.10;;
42098;SDS011;27758;55.900;8.516;2023-04-24T14:01:11;21.90;;;14.82;;
42098;SDS011;27758;55.900;8.516;2023-04-24T14:03:38;19.10;;;13.90;;
42098;SDS011;27758;55.900;8.516;2023-04-24T14:06:04;26.33;;;16.38;;
42098;SDS011;27758;55.900;8.516;2023-04-24T14:08:31;24.63;;;16.67;;
42098;SDS011;27758;55.900;8.516;2023-04-24T14:10:57;27.60;;;18.60;;
42098;SDS011;27758;55.900;8.516;2023-04-24T14:13:23;25.17;;;19.02;;
42098;SDS011;27758;55.900;8.516;2023-04-24T14:15:49;26.45;;;18.75;;
42098;SDS011;27758;55.900;8.516;2023-04-24T14:18:15;22.02;;;16.35;;
42098;SDS011;27758;55.900;8.516;2023-04-24T14:20:40;22.10;;;15.88;;
42098;SDS011;27758;55.900;8.516;2023-04-24T14:23:06;23.33;;;15.77;;
42098;SDS011;27758;55.900;8.516;2023-04-24T14:25:32;17.63;;;12.95;;
42098;SDS011;27758;55.900;8.516;2023-04-24T14:27:58;9.68;;;7.13;;
42098;SDS011;27758;55.900;8.516;2023-04-24T14:30:23;5.90;;;3.58;;
42098;SDS011;27758;55.900;8.516;2023-04-24T14:32:49;7.75;;;3.30;;
42098;SDS011;27758;55.900;8.516;2023-04-24T14:35:15;3.97;;;2.22;;
42098;SDS011;27758;55.900;8.516;2023-04-24T14:37:40;5.72;;;2.92;;
42098;SDS011;27758;55.900;8.516;2023-04-24T14:40:07;5.70;;;3.33;;
42098;SDS011;27758;55.900;8.516;2023-04-24T14:42:34;11.82;;;3.90;;
42098;SDS011;27758;55.900;8.516;2023-04-24T14:45:00;9.48;;;5.18;;
42098;SDS011;27758;55.900;8.516;2023-04-24T14:47:26;8.32;;;6.25;;
42098;SDS011;27758;55.900;8.516;2023-04-24T14:49:52;8.80;;;6.40;;